Latest Weather Observations for Creal Reef

IDQ60801

Issued at 5:35 pm EST Friday 24 October 2014 (issued every 30 minutes, with the page automatically refreshed every 10 minutes)

About weather observations | Map of weather stations | Latest weather observations for QLD | Other Formats
Station Details ID: 200736 Name: CREAL REEF Lat: -20.53 Lon: 150.38 Height: 1.7 m
Data from the previous 72 hours. | See also: Recent months for locations in Queensland
Date/Time
EST
Temp
°C
App
Temp
°C
Dew
Point
Rel
Hum
%
Delta-T
°C
Wind Press
QNH
hPa
Press
MSL
hPa
Rain
since 9 am
mm
Dir
 
Spd
km/h
Gust
km/h
Spd
kts
Gust
kts
24/05:30pm 23.3 - - - - SE 28 35 15 19 1018.3 - -
24/05:20pm 23.3 - - - - SE 28 30 15 16 1018.2 1018.1 -
24/05:00pm 23.2 - - - - SE 30 35 16 19 1018.0 - -
24/04:30pm 23.3 - - - - SE 32 37 17 20 1017.8 - -
24/04:20pm 23.3 - - - - SE 32 - 17 - - 1017.5 -
24/04:00pm 23.3 - - - - SE 32 37 17 20 1017.5 - -
24/03:30pm 23.4 - - - - SE 30 35 16 19 1017.5 - -
24/03:20pm 23.3 - - - - SE 32 37 17 20 1017.5 1017.4 -
24/02:20pm 23.5 - - - - SE 30 - 16 - - 1017.8 -
24/01:30pm 23.3 - - - - SE 30 35 16 19 1018.2 - -
24/01:20pm 23.3 - - - - SE 28 - 15 - - 1018.2 -
24/12:20pm 23.3 - - - - W 20 - 11 - - - -
24/12:00pm 23.5 - - - - SE 26 30 14 16 1019.3 - -
24/11:16am 23.2 - - - - SE 24 - 13 - - 1019.4 -
24/10:20am 23.4 - - - - SE 24 - 13 - - 1019.8 -
24/09:20am 23.2 - - - - SE 22 - 12 - - 1020.1 -
24/08:20am 23.3 - - - - SE 22 - 12 - - 1020.0 -
24/07:20am 23.2 - - - - SE 20 - 11 - - 1019.6 -
24/06:20am 23.2 - - - - ESE 20 - 11 - - 1018.9 -
24/05:20am 22.8 - - - - ESE 20 - 11 - - 1018.3 -
24/04:20am 22.9 - - - - SE 22 - 12 - - 1017.8 -
24/03:20am 22.7 - - - - SE 22 - 12 - - 1017.7 -
24/02:20am 22.8 - - - - ESE 24 - 13 - - 1017.8 -
24/01:20am 22.9 - - - - SE 22 - 12 - - 1018.5 -
24/12:20am 22.9 - - - - SE 22 - 12 - - 1019.2 -
 
Date/Time
EST
Temp
°C
App
Temp
°C
Dew
Point
Rel
Hum
%
Delta-T
°C
Wind Press
QNH
hPa
Press
MSL
hPa
Rain
since 9 am
mm
Dir
 
Spd
km/h
Gust
km/h
Spd
kts
Gust
kts
23/11:20pm 23.1 - - - - ESE 24 - 13 - - 1019.6 -
23/10:20pm 23.1 - - - - SE 28 - 15 - - 1019.5 -
23/09:20pm 23.2 - - - - SE 26 - 14 - - 1019.5 -
23/08:20pm 23.2 - - - - SE 30 - 16 - - 1019.1 -
23/07:20pm 23.3 - - - - SE 30 - 16 - - 1018.6 -
23/06:20pm 23.1 - - - - SE 30 - 16 - - 1018.0 -
23/01:00pm 23.2 - - - - SE 37 43 20 23 1017.5 - -
23/12:30pm 23.0 - - - - SE 35 43 19 23 1018.0 - -
23/12:20pm 23.1 - - - - SE 37 - 20 - - 1017.9 -
23/12:00pm 23.2 - - - - SE 35 43 19 23 1018.3 - -
23/11:30am 23.1 - - - - SE 35 41 19 22 1018.6 - -
23/11:20am 22.9 - - - - SE 37 - 20 - - 1018.5 -
23/10:30am 23.0 - - - - SE 35 41 19 22 1019.1 - -
23/10:20am 23.3 - - - - SE 39 - 21 - - 1019.1 -
23/10:00am 23.0 - - - - SE 35 41 19 22 1019.3 - -
23/09:30am 23.1 - - - - SE 35 41 19 22 1019.3 - -
23/09:20am 23.0 - - - - SE 35 - 19 - - 1019.3 -
23/09:00am 22.9 - - - - SSE 33 43 18 23 1019.3 - -
23/08:30am 23.1 - - - - SSE 33 43 18 23 1019.5 - -
23/08:20am 23.0 - - - - SSE 35 - 19 - - 1019.4 -
23/08:00am 22.9 - - - - SSE 37 46 20 25 1019.3 - -
23/07:30am 23.0 - - - - SSE 39 46 21 25 1019.2 - -
23/07:20am 23.0 - - - - SSE 37 - 20 - - 1019.1 -
23/07:00am 22.9 - - - - SSE 39 48 21 26 1018.8 - -
23/06:30am 23.0 - - - - SSE 35 46 19 25 1018.5 - -
23/06:20am 22.9 - - - - SSE 33 - 18 - - 1018.4 -
23/06:00am 22.8 - - - - SSE 35 44 19 24 1018.3 - -
23/05:30am 22.7 - - - - SSE 39 46 21 25 1017.9 - -
23/05:20am 22.8 - - - - SSE 37 - 20 - - 1017.8 -
23/05:00am 22.8 - - - - SE 39 44 21 24 1017.8 - -
23/04:30am 22.8 - - - - SSE 37 46 20 25 1017.5 - -
23/04:20am 22.5 - - - - SSE 41 - 22 - - 1017.3 -
23/04:00am 22.7 - - - - SSE 35 44 19 24 1017.3 - -
23/03:30am 22.6 - - - - SE 35 39 19 21 1017.4 - -
23/03:20am 22.6 - - - - SE 33 - 18 - - 1017.3 -
23/03:00am 22.4 - - - - SE 33 39 18 21 1017.5 - -
23/02:30am 22.8 - - - - SSE 35 46 19 25 1017.8 - -
23/02:20am 22.9 - - - - SSE 33 - 18 - - 1017.8 -
23/02:00am 23.0 - - - - SE 35 43 19 23 1018.1 - -
23/01:30am 22.9 - - - - SSE 35 43 19 23 1018.4 - -
23/01:20am 22.9 - - - - SSE 35 - 19 - - 1018.5 -
23/01:00am 23.1 - - - - SSE 33 41 18 22 1018.9 - -
23/12:30am 23.1 - - - - SSE 37 44 20 24 1019.3 - -
23/12:20am 23.0 - - - - SE 37 - 20 - - 1019.3 -
23/12:00am 22.9 - - - - SE 39 46 21 25 1019.5 - -
 
Date/Time
EST
Temp
°C
App
Temp
°C
Dew
Point
Rel
Hum
%
Delta-T
°C
Wind Press
QNH
hPa
Press
MSL
hPa
Rain
since 9 am
mm
Dir
 
Spd
km/h
Gust
km/h
Spd
kts
Gust
kts
22/11:30pm 23.1 - - - - SE 39 44 21 24 1019.7 - -
22/11:20pm 23.1 - - - - SE 37 - 20 - - 1019.7 -
22/11:00pm 23.0 - - - - SE 39 48 21 26 1019.9 - -
22/10:30pm 23.1 - - - - SE 39 46 21 25 1020.1 - -
22/10:20pm 23.1 - - - - SE 39 - 21 - - 1020.1 -
22/10:00pm 22.9 - - - - SE 39 46 21 25 1020.1 - -
22/09:30pm 22.9 - - - - SE 41 46 22 25 1020.2 - -
22/09:20pm 23.0 - - - - SE 41 - 22 - - 1020.1 -
22/09:00pm 22.9 - - - - SSE 39 46 21 25 1020.0 - -
22/08:30pm 22.9 - - - - SE 39 46 21 25 1019.9 - -
22/08:20pm 22.7 - - - - SE 41 - 22 - - 1019.6 -
22/08:00pm 22.8 - - - - SE 39 46 21 25 1019.5 - -
22/07:30pm 22.6 - - - - SSE 39 46 21 25 1019.3 - -
22/07:20pm 22.7 - - - - SSE 39 - 21 - - 1019.2 -
22/07:00pm 22.6 - - - - SSE 39 46 21 25 1019.1 - -
22/06:30pm 22.5 - - - - SSE 37 48 20 26 1019.0 - -
22/06:20pm 22.5 - - - - SSE 39 - 21 - - 1018.9 -
22/06:00pm 22.7 - - - - SSE 39 46 21 25 1018.8 - -
22/05:30pm 22.9 - - - - SSE 39 50 21 27 1018.5 - -
22/05:20pm 22.7 - - - - SSE 39 - 21 - - 1018.5 -
22/05:00pm 22.9 - - - - SSE 43 52 23 28 1018.4 - -
22/04:30pm 23.1 - - - - SSE 39 54 21 29 1018.0 - -
22/04:20pm 23.2 - - - - SSE 39 - 21 - - 1017.8 -
22/04:00pm 23.3 - - - - SSE 43 50 23 27 1017.9 - -
22/03:30pm 23.4 - - - - SSE 41 52 22 28 1017.9 - -
22/03:20pm 23.4 - - - - SSE 39 - 21 - - 1017.7 -
22/03:00pm 23.3 - - - - SSE 41 50 22 27 1017.9 - -
22/02:30pm 23.3 - - - - SSE 32 41 17 22 1018.1 - -
22/02:20pm 23.4 - - - - SSE 32 - 17 - - 1018.0 -
22/02:00pm 23.5 - - - - SSE 37 43 20 23 1018.4 - -
22/01:30pm 23.5 - - - - SSE 37 44 20 24 1018.7 - -
22/01:20pm 23.4 - - - - SE 35 - 19 - - 1018.8 -
22/01:00pm 23.4 - - - - SE 37 43 20 23 1019.1 - -
22/12:30pm 23.4 - - - - SE 37 41 20 22 1019.3 - -
22/12:20pm 23.4 - - - - SE 39 - 21 - - 1019.4 -
22/12:00pm 23.4 - - - - SE 39 46 21 25 1019.7 - -
22/11:30am 23.3 - - - - SE 39 44 21 24 1020.0 - -
22/11:20am 23.5 - - - - SE 41 - 22 - - 1020.0 -
22/11:00am 23.4 - - - - SE 41 46 22 25 1020.2 - -
22/10:30am 23.5 - - - - SE 39 46 21 25 1020.4 - -
22/10:20am 23.4 - - - - SE 41 - 22 - - 1020.3 -
22/10:00am 23.6 - - - - SE 39 48 21 26 1020.4 - -
22/09:30am 23.2 - - - - SE 37 43 20 23 1020.4 - -
22/09:20am 23.3 - - - - SE 37 - 20 - - 1020.3 -
22/09:00am 23.3 - - - - SE 41 50 22 27 1020.6 - -
22/08:30am 23.4 - - - - SE 39 44 21 24 1020.5 - -
22/08:20am 23.3 - - - - SE 39 - 21 - - 1020.4 -
22/08:00am 23.3 - - - - SE 35 41 19 22 1020.3 - -
22/07:30am 23.2 - - - - SE 39 46 21 25 1020.3 - -
22/07:20am 23.2 - - - - SE 41 - 22 - - 1020.2 -
22/07:00am 23.1 - - - - SE 41 48 22 26 1020.3 - -
22/06:30am 23.0 - - - - SE 41 50 22 27 1020.0 - -
22/06:20am 22.8 - - - - SE 43 - 23 - - 1019.8 -
22/06:00am 22.8 - - - - SE 43 52 23 28 1019.6 - -
22/05:30am 22.9 - - - - SE 44 52 24 28 1019.4 - -
22/05:20am 22.9 - - - - SE 46 - 25 - - 1019.2 -
22/05:00am 22.7 - - - - SE 48 54 26 29 1019.2 - -
22/04:30am 22.7 - - - - SE 50 57 27 31 1018.9 - -
22/04:20am 22.7 - - - - SE 50 - 27 - - 1018.8 -
22/04:00am 22.8 - - - - SE 50 57 27 31 1018.8 - -
22/03:30am 22.7 - - - - SE 50 57 27 31 1018.9 - -
22/03:20am 22.8 - - - - SE 50 - 27 - - 1018.8 -
22/03:00am 22.8 - - - - SE 50 59 27 32 1018.9 - -
22/02:30am 22.8 - - - - SE 50 61 27 33 1019.0 - -
22/02:20am 22.9 - - - - SE 52 - 28 - - 1018.8 -
22/02:00am 23.0 - - - - SE 48 57 26 31 1019.2 - -
22/01:30am 22.5 - - - - SE 44 57 24 31 1019.6 - -
22/01:21am 21.7 - - - - SE 44 63 24 34 1019.8 - -
22/01:20am 21.5 - - - - SE 46 - 25 - - 1019.7 -
22/01:00am 20.9 - - - - ESE 41 56 22 30 1020.1 - -
22/12:39am 21.8 - - - - SE 35 52 19 28 1020.3 - -
22/12:30am 21.7 - - - - E 39 48 21 26 1020.6 - -
22/12:21am 21.6 - - - - E 43 54 23 29 1020.7 - -
22/12:20am 21.7 - - - - SE 41 - 22 - - 1020.6 -
22/12:00am 22.0 - - - - SE 44 54 24 29 1021.0 - -
 
Date/Time
EST
Temp
°C
App
Temp
°C
Dew
Point
Rel
Hum
%
Delta-T
°C
Wind Press
QNH
hPa
Press
MSL
hPa
Rain
since 9 am
mm
Dir
 
Spd
km/h
Gust
km/h
Spd
kts
Gust
kts
21/11:30pm 22.0 - - - - SE 39 44 21 24 1021.2 - -
21/11:20pm 22.3 - - - - SE 41 - 22 - - 1021.2 -
21/11:00pm 21.5 - - - - SE 52 61 28 33 1021.5 - -
21/10:30pm 22.6 - - - - SE 44 50 24 27 1021.4 - -
21/10:20pm 22.3 - - - - SE 43 - 23 - - 1021.4 -
21/10:00pm 22.9 - - - - SE 44 50 24 27 1021.5 - -
21/09:30pm 23.3 - - - - SE 43 50 23 27 1021.6 - -
21/09:20pm 23.4 - - - - SE 44 - 24 - - 1021.4 -
21/09:00pm 23.1 - - - - SE 43 52 23 28 1021.4 - -
21/08:30pm 22.4 - - - - SE 46 56 25 30 1021.2 - -
21/08:20pm 23.3 - - - - SE 37 - 20 - - 1021.0 -
21/08:00pm 23.6 - - - - SE 43 50 23 27 1020.7 - -
21/07:30pm 23.6 - - - - SE 44 50 24 27 1020.6 - -
21/07:20pm 23.6 - - - - ESE 43 - 23 - - 1020.6 -
21/07:00pm 23.4 - - - - ESE 37 43 20 23 1020.6 - -
21/06:30pm 23.1 - - - - SE 39 46 21 25 1020.4 - -
21/06:20pm 23.5 - - - - SE 39 - 21 - - 1020.2 -
21/06:00pm 23.4 - - - - SE 37 44 20 24 1020.0 - -

Other Formats:

Comma delimited format used in spreadsheet applications
http://www.bom.gov.au/fwo/IDQ60801/IDQ60801.94371.axf

JavaScript Object Notation format (JSON) in row-major order
http://www.bom.gov.au/fwo/IDQ60801/IDQ60801.94371.json